createdAt,value
2023-03-22T00:01:20.412Z,5.00
2023-03-22T00:03:49.454Z,5.32
2023-03-22T00:06:17.237Z,4.97
2023-03-22T00:08:45.521Z,4.53
2023-03-22T00:11:13.970Z,5.10
2023-03-22T00:13:43.252Z,4.80
2023-03-22T00:16:11.302Z,4.72
2023-03-22T00:18:38.617Z,5.00
2023-03-22T00:21:07.757Z,4.53
2023-03-22T00:23:34.801Z,4.90
2023-03-22T00:26:03.498Z,4.70
2023-03-22T00:28:30.771Z,4.00
2023-03-22T00:31:00.429Z,4.70
2023-03-22T00:33:29.313Z,4.40
2023-03-22T00:36:01.709Z,5.00
2023-03-22T00:38:46.887Z,4.50
2023-03-22T00:41:23.375Z,4.45
2023-03-22T00:43:52.139Z,4.32
2023-03-22T00:46:23.508Z,4.60
2023-03-22T00:48:51.329Z,4.43
2023-03-22T00:51:18.437Z,4.45
2023-03-22T00:53:50.033Z,4.85
2023-03-22T00:56:18.820Z,3.88
2023-03-22T00:58:56.971Z,4.22
2023-03-22T01:01:24.760Z,4.05
2023-03-22T01:03:52.170Z,4.18
2023-03-22T01:06:21.138Z,4.18
2023-03-22T01:08:50.863Z,4.15
2023-03-22T01:11:18.321Z,4.00
2023-03-22T01:13:48.098Z,4.20
2023-03-22T01:16:15.789Z,3.92
2023-03-22T01:18:43.438Z,4.95
2023-03-22T01:21:11.085Z,4.30
2023-03-22T01:23:38.204Z,3.85
2023-03-22T01:26:06.279Z,3.72
2023-03-22T01:28:33.287Z,3.42
2023-03-22T01:31:04.266Z,3.92
2023-03-22T01:33:32.030Z,3.95
2023-03-22T01:35:59.532Z,3.78
2023-03-22T01:38:27.343Z,4.03
2023-03-22T01:40:58.642Z,3.55
2023-03-22T01:43:27.533Z,3.83
2023-03-22T01:45:56.840Z,3.40
2023-03-22T01:48:35.919Z,3.72
2023-03-22T01:51:07.265Z,3.95
2023-03-22T01:53:47.834Z,3.75
2023-03-22T01:56:16.144Z,3.95
2023-03-22T01:58:43.940Z,4.18
2023-03-22T02:01:14.384Z,3.35
2023-03-22T02:03:56.687Z,3.83
2023-03-22T02:06:25.887Z,3.55
2023-03-22T02:09:01.189Z,3.35
2023-03-22T02:11:35.960Z,3.95
2023-03-22T02:14:23.482Z,3.47
2023-03-22T02:17:19.469Z,3.10
2023-03-22T02:20:24.594Z,3.67
2023-03-22T02:23:17.914Z,3.78
2023-03-22T02:26:13.038Z,3.42
2023-03-22T02:28:58.680Z,3.25
2023-03-22T02:31:46.986Z,3.92
2023-03-22T02:34:44.893Z,3.90
2023-03-22T02:37:36.847Z,3.88
2023-03-22T02:40:26.173Z,4.18
2023-03-22T02:42:57.591Z,3.70
2023-03-22T02:45:36.080Z,3.75
2023-03-22T02:48:16.715Z,4.15
2023-03-22T02:51:06.509Z,3.42
2023-03-22T02:53:49.088Z,3.85
2023-03-22T02:58:55.101Z,3.80
2023-03-22T03:01:59.018Z,3.28
2023-03-22T03:04:35.500Z,3.92
2023-03-22T03:07:09.344Z,4.40
2023-03-22T03:09:39.397Z,3.45
2023-03-22T03:12:19.343Z,3.95
2023-03-22T03:14:46.564Z,3.60
2023-03-22T03:18:05.085Z,3.20
2023-03-22T03:20:35.077Z,3.63
2023-03-22T03:23:14.655Z,3.35
2023-03-22T03:25:48.433Z,3.80
2023-03-22T03:28:30.580Z,3.65
2023-03-22T03:31:02.852Z,4.32
2023-03-22T03:33:35.772Z,3.10
2023-03-22T03:36:11.169Z,3.67
2023-03-22T03:38:44.511Z,2.83
2023-03-22T03:41:16.377Z,3.30
2023-03-22T03:43:46.882Z,3.13
2023-03-22T03:46:20.056Z,3.47
2023-03-22T03:48:50.129Z,3.28
2023-03-22T03:51:17.326Z,3.55
2023-03-22T03:53:44.345Z,3.28
2023-03-22T03:56:11.709Z,2.80
2023-03-22T03:58:46.486Z,3.20
2023-03-22T04:01:13.663Z,3.70
2023-03-22T04:03:55.586Z,3.78
2023-03-22T04:06:40.361Z,3.60
2023-03-22T04:09:12.155Z,3.53
2023-03-22T04:11:43.936Z,3.45
2023-03-22T04:14:13.836Z,3.88
2023-03-22T04:16:41.192Z,4.05
2023-03-22T04:19:14.308Z,3.40
2023-03-22T04:21:41.468Z,3.03
2023-03-22T04:24:09.899Z,3.28
2023-03-22T04:26:41.365Z,3.28
2023-03-22T04:29:32.418Z,3.10
2023-03-22T04:32:24.836Z,3.90
2023-03-22T04:34:55.010Z,3.45
2023-03-22T04:37:24.745Z,3.08
2023-03-22T04:40:07.310Z,3.78
2023-03-22T04:42:47.130Z,3.70
2023-03-22T04:45:21.355Z,3.20
2023-03-22T04:47:56.367Z,3.45
2023-03-22T04:50:23.833Z,4.15
2023-03-22T04:52:56.347Z,4.10
2023-03-22T04:55:24.290Z,3.15
2023-03-22T04:57:51.307Z,3.42
2023-03-22T05:00:18.863Z,3.50
2023-03-22T05:02:45.941Z,3.47
2023-03-22T05:05:27.939Z,3.03
2023-03-22T05:07:56.692Z,2.50
2023-03-22T05:10:24.910Z,3.28
2023-03-22T05:12:53.253Z,3.58
2023-03-22T05:15:32.719Z,3.03
2023-03-22T05:18:02.103Z,2.97
2023-03-22T05:20:29.139Z,2.95
2023-03-22T05:23:09.772Z,3.55
2023-03-22T05:25:38.390Z,3.05
2023-03-22T05:28:07.240Z,3.58
2023-03-22T05:30:42.170Z,3.45
2023-03-22T05:33:32.246Z,2.80
2023-03-22T05:35:59.501Z,3.28
2023-03-22T05:38:32.021Z,2.85
2023-03-22T05:41:01.218Z,3.10
2023-03-22T05:43:33.066Z,3.00
2023-03-22T05:46:00.284Z,3.47
2023-03-22T05:48:45.898Z,3.05
2023-03-22T05:51:17.826Z,3.97
2023-03-22T05:53:48.709Z,3.60
2023-03-22T05:56:22.002Z,3.00
2023-03-22T05:58:50.803Z,3.30
2023-03-22T06:01:21.618Z,3.13
2023-03-22T06:03:49.159Z,3.00
2023-03-22T06:06:28.248Z,4.00
2023-03-22T06:09:16.515Z,2.53
2023-03-22T06:11:45.771Z,2.60
2023-03-22T06:14:16.076Z,2.63
2023-03-22T06:17:12.263Z,2.78
2023-03-22T06:19:40.330Z,3.15
2023-03-22T06:22:08.654Z,2.85
2023-03-22T06:24:37.260Z,2.40
2023-03-22T06:27:07.059Z,2.70
2023-03-22T06:29:35.292Z,3.08
2023-03-22T06:32:06.341Z,3.00
2023-03-22T06:34:34.046Z,3.03
2023-03-22T06:37:02.184Z,2.85
2023-03-22T06:39:35.995Z,2.80
2023-03-22T06:42:04.648Z,2.60
2023-03-22T06:44:32.314Z,2.53
2023-03-22T06:47:13.108Z,3.17
2023-03-22T06:49:46.250Z,2.58
2023-03-22T06:52:22.975Z,2.42
2023-03-22T06:54:50.690Z,2.42
2023-03-22T06:57:19.084Z,3.08
2023-03-22T06:59:46.087Z,2.20
2023-03-22T07:02:13.760Z,2.53
2023-03-22T07:04:47.330Z,2.97
2023-03-22T07:07:14.529Z,2.75
2023-03-22T07:09:44.255Z,2.35
2023-03-22T07:12:14.242Z,2.93
2023-03-22T07:14:42.048Z,2.20
2023-03-22T07:17:25.235Z,2.55
2023-03-22T07:19:52.312Z,3.10
2023-03-22T07:22:22.528Z,2.60
2023-03-22T07:24:57.696Z,2.25
2023-03-22T07:27:28.573Z,2.40
2023-03-22T07:29:56.499Z,2.60
2023-03-22T07:32:28.349Z,2.00
2023-03-22T07:35:13.124Z,2.88
2023-03-22T07:37:42.828Z,2.60
2023-03-22T07:40:21.746Z,1.92
2023-03-22T07:42:51.272Z,2.05
2023-03-22T07:45:46.281Z,2.40
2023-03-22T07:48:32.297Z,2.30
2023-03-22T07:51:23.122Z,2.50
2023-03-22T07:53:50.507Z,2.22
2023-03-22T07:56:17.675Z,2.22
2023-03-22T07:58:45.114Z,2.42
2023-03-22T08:01:24.857Z,1.85
2023-03-22T08:03:54.487Z,2.78
2023-03-22T08:07:02.588Z,2.10
2023-03-22T08:09:30.123Z,2.28
2023-03-22T08:12:00.605Z,1.67
2023-03-22T08:14:36.305Z,2.03
2023-03-22T08:17:09.262Z,1.88
2023-03-22T08:19:36.574Z,1.80
2023-03-22T08:22:09.603Z,1.73
2023-03-22T08:25:09.507Z,1.67
2023-03-22T08:27:40.119Z,1.73
2023-03-22T08:30:08.157Z,1.52
2023-03-22T08:32:36.809Z,1.52
2023-03-22T08:35:07.585Z,2.10
2023-03-22T08:37:34.769Z,1.67
2023-03-22T08:40:08.044Z,1.90
2023-03-22T08:42:47.037Z,1.60
2023-03-22T08:45:15.329Z,1.92
2023-03-22T08:47:49.227Z,1.83
2023-03-22T08:50:20.164Z,1.60
2023-03-22T08:52:54.844Z,1.23
2023-03-22T08:55:29.318Z,1.45
2023-03-22T08:58:12.081Z,1.67
2023-03-22T09:00:49.813Z,1.13
2023-03-22T09:03:25.754Z,1.83
2023-03-22T09:05:53.333Z,1.60
2023-03-22T09:08:23.451Z,1.60
2023-03-22T09:11:07.900Z,1.15
2023-03-22T09:13:36.136Z,1.48
2023-03-22T09:16:05.300Z,1.20
2023-03-22T09:18:33.652Z,1.15
2023-03-22T09:21:04.643Z,1.63
2023-03-22T09:23:43.549Z,1.48
2023-03-22T09:26:12.424Z,1.65
2023-03-22T09:28:41.495Z,1.75
2023-03-22T09:31:12.186Z,1.80
2023-03-22T09:33:42.100Z,1.55
2023-03-22T09:36:12.446Z,1.23
2023-03-22T09:38:42.801Z,1.73
2023-03-22T09:41:27.322Z,1.60
2023-03-22T09:44:00.688Z,1.70
2023-03-22T09:46:33.125Z,1.60
2023-03-22T09:49:02.873Z,1.42
2023-03-22T09:51:45.263Z,1.33
2023-03-22T09:56:45.311Z,1.30
2023-03-22T09:59:22.212Z,1.42
2023-03-22T10:02:17.017Z,1.52
2023-03-22T10:05:08.685Z,1.60
2023-03-22T10:07:53.675Z,1.70
2023-03-22T10:10:24.013Z,1.35
2023-03-22T10:13:01.864Z,1.35
2023-03-22T10:15:47.756Z,1.42
2023-03-22T10:18:22.756Z,1.92
2023-03-22T10:21:00.814Z,1.80
2023-03-22T10:23:34.801Z,1.15
2023-03-22T10:26:04.364Z,1.25
2023-03-22T10:28:45.072Z,1.15
2023-03-22T10:31:18.529Z,1.15
2023-03-22T10:34:10.024Z,1.13
2023-03-22T10:36:44.739Z,2.00
2023-03-22T10:39:25.850Z,0.88
2023-03-22T10:42:00.450Z,1.67
2023-03-22T10:44:30.833Z,1.40
2023-03-22T10:47:00.842Z,1.30
2023-03-22T10:49:33.418Z,1.20
2023-03-22T10:52:19.702Z,1.15
2023-03-22T10:54:47.229Z,1.10
2023-03-22T10:57:14.327Z,1.15
2023-03-22T10:59:47.599Z,1.52
2023-03-22T11:02:35.003Z,1.30
2023-03-22T11:05:06.455Z,2.63
2023-03-22T11:07:47.965Z,1.20
2023-03-22T11:10:41.703Z,1.80
2023-03-22T11:13:09.826Z,1.20
2023-03-22T11:15:41.381Z,1.30
2023-03-22T11:18:15.886Z,1.67
2023-03-22T11:20:56.235Z,1.33
2023-03-22T11:23:24.408Z,1.73
2023-03-22T11:25:55.251Z,2.17
2023-03-22T11:28:26.151Z,1.00
2023-03-22T11:31:04.270Z,1.50
2023-03-22T11:33:32.463Z,1.50
2023-03-22T11:36:15.837Z,1.45
2023-03-22T11:38:48.837Z,1.30
2023-03-22T11:41:28.166Z,1.13
2023-03-22T11:44:05.577Z,1.35
2023-03-22T11:46:36.550Z,1.40
2023-03-22T11:49:14.788Z,1.27
2023-03-22T11:51:45.212Z,1.98
2023-03-22T11:54:35.350Z,1.40
2023-03-22T11:57:10.335Z,1.50
2023-03-22T11:59:39.596Z,1.63
2023-03-22T12:02:21.661Z,1.08
2023-03-22T12:04:52.912Z,1.20
2023-03-22T12:07:22.129Z,1.45
2023-03-22T12:10:00.034Z,1.98
2023-03-22T12:12:36.870Z,1.20
2023-03-22T12:15:21.278Z,1.30
2023-03-22T12:18:04.514Z,1.33
2023-03-22T12:20:33.201Z,1.50
2023-03-22T12:23:03.467Z,1.30
2023-03-22T12:25:35.927Z,1.90
2023-03-22T12:28:08.357Z,1.50
2023-03-22T12:30:46.267Z,1.23
2023-03-22T12:33:25.438Z,1.20
2023-03-22T12:35:59.810Z,1.23
2023-03-22T12:38:41.932Z,1.20
2023-03-22T12:41:40.459Z,1.40
2023-03-22T12:44:27.764Z,1.60
2023-03-22T12:47:13.083Z,1.30
2023-03-22T12:50:13.937Z,2.03
2023-03-22T12:52:57.837Z,1.30
2023-03-22T12:55:54.153Z,1.00
2023-03-22T12:58:24.462Z,1.30
2023-03-22T13:00:58.072Z,1.45
2023-03-22T13:03:37.688Z,1.27
2023-03-22T13:06:27.397Z,1.13
2023-03-22T13:09:19.546Z,1.10
2023-03-22T13:12:09.644Z,1.13
2023-03-22T13:14:59.000Z,1.10
2023-03-22T13:17:29.111Z,1.27
2023-03-22T13:20:11.669Z,1.70
2023-03-22T13:22:38.811Z,1.50
2023-03-22T13:25:17.250Z,1.17
2023-03-22T13:28:17.276Z,1.17
2023-03-22T13:30:57.424Z,1.33
2023-03-22T13:33:28.801Z,1.75
2023-03-22T13:36:23.326Z,1.83
2023-03-22T13:39:08.130Z,1.17
2023-03-22T13:41:35.820Z,1.13
2023-03-22T13:44:27.002Z,1.58
2023-03-22T13:47:00.038Z,1.90
2023-03-22T13:49:47.314Z,1.10
2023-03-22T13:52:29.240Z,1.70
2023-03-22T13:54:59.158Z,1.55
2023-03-22T13:57:47.808Z,1.23
2023-03-22T14:00:20.686Z,1.23
2023-03-22T14:02:50.599Z,1.13
2023-03-22T14:05:25.304Z,1.40
2023-03-22T14:07:54.053Z,1.77
2023-03-22T14:10:24.498Z,1.63
2023-03-22T14:13:15.898Z,1.23
2023-03-22T14:15:53.578Z,1.67
2023-03-22T14:18:27.420Z,1.48
2023-03-22T14:21:14.434Z,1.40
